sensor_id;sensor_type;location;lat;lon;timestamp;pressure;altitude;pressure_sealevel;temperature;humidity
18749;BME280;9503;53.560;10.246;2023-03-18T00:01:09;100109.81;;;13.45;85.93
18749;BME280;9503;53.560;10.246;2023-03-18T00:03:36;100108.72;;;13.37;85.81
18749;BME280;9503;53.560;10.246;2023-03-18T00:06:05;100113.25;;;13.45;85.92
18749;BME280;9503;53.560;10.246;2023-03-18T00:08:32;100108.97;;;13.46;85.97
18749;BME280;9503;53.560;10.246;2023-03-18T00:10:59;100111.34;;;13.38;86.63
18749;BME280;9503;53.560;10.246;2023-03-18T00:13:26;100109.50;;;13.34;86.48
18749;BME280;9503;53.560;10.246;2023-03-18T00:15:53;100110.31;;;13.32;86.89
18749;BME280;9503;53.560;10.246;2023-03-18T00:18:21;100100.00;;;13.32;87.11
18749;BME280;9503;53.560;10.246;2023-03-18T00:20:49;100108.97;;;13.16;87.68
18749;BME280;9503;53.560;10.246;2023-03-18T00:23:15;100104.75;;;13.18;88.02
18749;BME280;9503;53.560;10.246;2023-03-18T00:25:42;100113.28;;;13.17;88.22
18749;BME280;9503;53.560;10.246;2023-03-18T00:28:11;100103.78;;;13.14;88.15
18749;BME280;9503;53.560;10.246;2023-03-18T00:30:39;100098.69;;;13.16;88.47
18749;BME280;9503;53.560;10.246;2023-03-18T00:33:07;100102.13;;;13.16;88.69
18749;BME280;9503;53.560;10.246;2023-03-18T00:35:35;100106.81;;;13.30;88.16
18749;BME280;9503;53.560;10.246;2023-03-18T00:38:02;100102.53;;;13.30;87.88
18749;BME280;9503;53.560;10.246;2023-03-18T00:40:32;100097.59;;;13.38;87.68
18749;BME280;9503;53.560;10.246;2023-03-18T00:43:17;100093.94;;;13.30;88.05
18749;BME280;9503;53.560;10.246;2023-03-18T00:45:47;100098.38;;;13.35;88.25
18749;BME280;9503;53.560;10.246;2023-03-18T00:48:15;100099.34;;;13.39;88.62
18749;BME280;9503;53.560;10.246;2023-03-18T00:50:43;100104.50;;;13.39;88.53
18749;BME280;9503;53.560;10.246;2023-03-18T00:53:11;100109.53;;;13.36;88.83
18749;BME280;9503;53.560;10.246;2023-03-18T00:55:38;100109.16;;;13.22;89.93
18749;BME280;9503;53.560;10.246;2023-03-18T00:58:05;100109.28;;;13.26;90.24
18749;BME280;9503;53.560;10.246;2023-03-18T01:00:33;100110.72;;;13.17;91.37
18749;BME280;9503;53.560;10.246;2023-03-18T01:02:59;100116.13;;;13.24;91.47
18749;BME280;9503;53.560;10.246;2023-03-18T01:05:26;100121.22;;;13.23;91.61
18749;BME280;9503;53.560;10.246;2023-03-18T01:07:54;100126.31;;;13.21;92.28
18749;BME280;9503;53.560;10.246;2023-03-18T01:10:22;100121.13;;;13.20;92.47
18749;BME280;9503;53.560;10.246;2023-03-18T01:12:49;100120.41;;;13.24;93.46
18749;BME280;9503;53.560;10.246;2023-03-18T01:15:18;100118.97;;;13.35;93.35
18749;BME280;9503;53.560;10.246;2023-03-18T01:17:45;100121.88;;;13.17;94.27
18749;BME280;9503;53.560;10.246;2023-03-18T01:20:14;100123.63;;;13.18;94.80
18749;BME280;9503;53.560;10.246;2023-03-18T01:22:41;100122.75;;;13.18;95.19
18749;BME280;9503;53.560;10.246;2023-03-18T01:25:12;100125.13;;;13.10;95.81
18749;BME280;9503;53.560;10.246;2023-03-18T01:27:40;100117.41;;;13.10;96.25
18749;BME280;9503;53.560;10.246;2023-03-18T01:30:08;100115.03;;;12.88;97.58
18749;BME280;9503;53.560;10.246;2023-03-18T01:32:35;100107.19;;;12.83;98.97
18749;BME280;9503;53.560;10.246;2023-03-18T01:35:03;100116.09;;;12.94;98.88
18749;BME280;9503;53.560;10.246;2023-03-18T01:37:29;100110.75;;;12.87;99.00
18749;BME280;9503;53.560;10.246;2023-03-18T01:39:56;100110.19;;;12.98;98.85
18749;BME280;9503;53.560;10.246;2023-03-18T01:42:24;100102.88;;;12.82;99.19
18749;BME280;9503;53.560;10.246;2023-03-18T01:45:12;100107.69;;;13.00;99.29
18749;BME280;9503;53.560;10.246;2023-03-18T01:47:43;100110.31;;;13.02;99.05
18749;BME280;9503;53.560;10.246;2023-03-18T01:50:11;100109.53;;;13.06;98.93
18749;BME280;9503;53.560;10.246;2023-03-18T01:52:39;100110.38;;;13.05;98.99
18749;BME280;9503;53.560;10.246;2023-03-18T01:55:10;100120.81;;;13.09;98.72
18749;BME280;9503;53.560;10.246;2023-03-18T01:57:39;100114.72;;;13.07;98.75
18749;BME280;9503;53.560;10.246;2023-03-18T02:00:08;100118.09;;;13.05;98.39
18749;BME280;9503;53.560;10.246;2023-03-18T02:02:37;100124.28;;;13.11;98.19
18749;BME280;9503;53.560;10.246;2023-03-18T02:05:07;100122.59;;;13.12;97.89
18749;BME280;9503;53.560;10.246;2023-03-18T02:07:36;100132.47;;;13.26;97.02
18749;BME280;9503;53.560;10.246;2023-03-18T02:10:06;100135.06;;;13.28;96.47
18749;BME280;9503;53.560;10.246;2023-03-18T02:12:37;100123.19;;;13.32;95.90
18749;BME280;9503;53.560;10.246;2023-03-18T02:15:08;100141.06;;;13.27;96.00
18749;BME280;9503;53.560;10.246;2023-03-18T02:17:37;100124.19;;;13.37;94.91
18749;BME280;9503;53.560;10.246;2023-03-18T02:20:14;100136.75;;;13.26;94.33
18749;BME280;9503;53.560;10.246;2023-03-18T02:22:47;100126.13;;;13.45;94.05
18749;BME280;9503;53.560;10.246;2023-03-18T02:25:34;100134.38;;;13.34;94.09
18749;BME280;9503;53.560;10.246;2023-03-18T02:28:06;100134.31;;;13.31;93.99
18749;BME280;9503;53.560;10.246;2023-03-18T02:30:37;100144.44;;;13.24;94.91
18749;BME280;9503;53.560;10.246;2023-03-18T02:33:06;100149.31;;;13.15;96.05
18749;BME280;9503;53.560;10.246;2023-03-18T02:35:34;100142.34;;;13.13;96.68
18749;BME280;9503;53.560;10.246;2023-03-18T02:38:01;100153.22;;;13.03;97.84
18749;BME280;9503;53.560;10.246;2023-03-18T02:40:31;100148.09;;;13.04;98.48
18749;BME280;9503;53.560;10.246;2023-03-18T02:43:14;100158.25;;;12.99;99.42
18749;BME280;9503;53.560;10.246;2023-03-18T02:48:38;100147.22;;;13.04;100.00
18749;BME280;9503;53.560;10.246;2023-03-18T02:51:06;100146.97;;;12.94;100.00
18749;BME280;9503;53.560;10.246;2023-03-18T02:53:33;100146.22;;;12.98;100.00
18749;BME280;9503;53.560;10.246;2023-03-18T02:56:00;100144.47;;;12.97;100.00
18749;BME280;9503;53.560;10.246;2023-03-18T02:58:28;100139.94;;;12.89;100.00
18749;BME280;9503;53.560;10.246;2023-03-18T03:00:55;100139.06;;;12.88;100.00
18749;BME280;9503;53.560;10.246;2023-03-18T03:03:23;100138.31;;;12.92;100.00
18749;BME280;9503;53.560;10.246;2023-03-18T03:05:50;100132.00;;;12.81;100.00
18749;BME280;9503;53.560;10.246;2023-03-18T03:08:18;100132.94;;;12.85;100.00
18749;BME280;9503;53.560;10.246;2023-03-18T03:10:45;100132.03;;;12.83;100.00
18749;BME280;9503;53.560;10.246;2023-03-18T03:13:12;100136.31;;;12.82;100.00
18749;BME280;9503;53.560;10.246;2023-03-18T03:15:40;100135.44;;;12.82;100.00
18749;BME280;9503;53.560;10.246;2023-03-18T03:18:07;100137.84;;;12.76;100.00
18749;BME280;9503;53.560;10.246;2023-03-18T03:20:34;100138.66;;;12.75;100.00
18749;BME280;9503;53.560;10.246;2023-03-18T03:23:03;100146.34;;;12.73;100.00
18749;BME280;9503;53.560;10.246;2023-03-18T03:25:30;100142.97;;;12.76;100.00
18749;BME280;9503;53.560;10.246;2023-03-18T03:27:58;100136.44;;;12.85;100.00
18749;BME280;9503;53.560;10.246;2023-03-18T03:30:25;100139.69;;;12.80;100.00
18749;BME280;9503;53.560;10.246;2023-03-18T03:32:53;100136.16;;;12.78;100.00
18749;BME280;9503;53.560;10.246;2023-03-18T03:35:20;100136.09;;;12.75;100.00
18749;BME280;9503;53.560;10.246;2023-03-18T03:37:47;100141.16;;;12.71;100.00
18749;BME280;9503;53.560;10.246;2023-03-18T03:40:16;100147.22;;;12.73;100.00
18749;BME280;9503;53.560;10.246;2023-03-18T03:42:45;100136.91;;;12.73;100.00
18749;BME280;9503;53.560;10.246;2023-03-18T03:45:13;100129.94;;;12.69;100.00
18749;BME280;9503;53.560;10.246;2023-03-18T03:47:41;100131.78;;;12.73;100.00
18749;BME280;9503;53.560;10.246;2023-03-18T03:50:10;100133.47;;;12.73;100.00
18749;BME280;9503;53.560;10.246;2023-03-18T03:52:37;100132.59;;;12.72;100.00
18749;BME280;9503;53.560;10.246;2023-03-18T03:55:05;100140.00;;;12.62;100.00
18749;BME280;9503;53.560;10.246;2023-03-18T03:57:32;100148.22;;;12.50;100.00
18749;BME280;9503;53.560;10.246;2023-03-18T03:59:59;100140.50;;;12.50;100.00
18749;BME280;9503;53.560;10.246;2023-03-18T04:02:26;100131.31;;;12.58;100.00
18749;BME280;9503;53.560;10.246;2023-03-18T04:04:53;100134.84;;;12.62;100.00
18749;BME280;9503;53.560;10.246;2023-03-18T04:07:21;100134.28;;;12.43;100.00
18749;BME280;9503;53.560;10.246;2023-03-18T04:09:48;100130.19;;;12.49;100.00
18749;BME280;9503;53.560;10.246;2023-03-18T04:12:14;100125.56;;;12.38;100.00
18749;BME280;9503;53.560;10.246;2023-03-18T04:14:42;100130.19;;;12.49;100.00
18749;BME280;9503;53.560;10.246;2023-03-18T04:17:09;100129.16;;;12.43;100.00
18749;BME280;9503;53.560;10.246;2023-03-18T04:19:36;100140.16;;;12.39;100.00
18749;BME280;9503;53.560;10.246;2023-03-18T04:22:03;100133.94;;;12.33;100.00
18749;BME280;9503;53.560;10.246;2023-03-18T04:24:31;100146.75;;;12.31;100.00
18749;BME280;9503;53.560;10.246;2023-03-18T04:26:58;100146.16;;;12.40;100.00
18749;BME280;9503;53.560;10.246;2023-03-18T04:29:25;100151.69;;;12.52;100.00
18749;BME280;9503;53.560;10.246;2023-03-18T04:31:51;100147.38;;;12.51;100.00
18749;BME280;9503;53.560;10.246;2023-03-18T04:34:18;100150.06;;;12.27;100.00
18749;BME280;9503;53.560;10.246;2023-03-18T04:36:46;100148.69;;;12.38;100.00
18749;BME280;9503;53.560;10.246;2023-03-18T04:39:13;100148.03;;;12.44;100.00
18749;BME280;9503;53.560;10.246;2023-03-18T04:41:41;100144.06;;;12.55;100.00
18749;BME280;9503;53.560;10.246;2023-03-18T04:44:08;100141.34;;;12.49;100.00
18749;BME280;9503;53.560;10.246;2023-03-18T04:46:34;100155.09;;;12.51;100.00
18749;BME280;9503;53.560;10.246;2023-03-18T04:49:02;100154.88;;;12.43;100.00
18749;BME280;9503;53.560;10.246;2023-03-18T04:51:28;100152.19;;;12.40;100.00
18749;BME280;9503;53.560;10.246;2023-03-18T04:53:55;100151.63;;;12.49;100.00
18749;BME280;9503;53.560;10.246;2023-03-18T04:56:22;100155.09;;;12.51;100.00
18749;BME280;9503;53.560;10.246;2023-03-18T04:58:51;100153.88;;;12.40;100.00
18749;BME280;9503;53.560;10.246;2023-03-18T05:01:18;100155.94;;;12.50;100.00
18749;BME280;9503;53.560;10.246;2023-03-18T05:03:44;100150.19;;;12.59;100.00
18749;BME280;9503;53.560;10.246;2023-03-18T05:06:19;100157.00;;;12.57;100.00
18749;BME280;9503;53.560;10.246;2023-03-18T05:08:47;100159.81;;;12.64;100.00
18749;BME280;9503;53.560;10.246;2023-03-18T05:11:13;100163.06;;;12.59;100.00
18749;BME280;9503;53.560;10.246;2023-03-18T05:13:40;100177.41;;;12.52;100.00
18749;BME280;9503;53.560;10.246;2023-03-18T05:16:08;100181.41;;;12.42;100.00
18749;BME280;9503;53.560;10.246;2023-03-18T05:18:35;100182.84;;;12.61;100.00
18749;BME280;9503;53.560;10.246;2023-03-18T05:21:02;100181.00;;;12.57;100.00
18749;BME280;9503;53.560;10.246;2023-03-18T05:23:29;100175.09;;;12.60;100.00
18749;BME280;9503;53.560;10.246;2023-03-18T05:25:56;100167.03;;;12.78;100.00
18749;BME280;9503;53.560;10.246;2023-03-18T05:28:23;100159.28;;;12.76;100.00
18749;BME280;9503;53.560;10.246;2023-03-18T05:30:50;100158.22;;;12.69;100.00
18749;BME280;9503;53.560;10.246;2023-03-18T05:33:19;100160.47;;;12.59;100.00
18749;BME280;9503;53.560;10.246;2023-03-18T05:35:46;100172.47;;;12.58;100.00
18749;BME280;9503;53.560;10.246;2023-03-18T05:38:13;100179.63;;;12.68;100.00
18749;BME280;9503;53.560;10.246;2023-03-18T05:40:39;100182.47;;;12.49;100.00
18749;BME280;9503;53.560;10.246;2023-03-18T05:43:06;100181.53;;;12.47;100.00
18749;BME280;9503;53.560;10.246;2023-03-18T05:45:33;100181.84;;;12.56;100.00
18749;BME280;9503;53.560;10.246;2023-03-18T05:48:00;100188.09;;;12.64;100.00
18749;BME280;9503;53.560;10.246;2023-03-18T05:50:30;100177.69;;;12.61;100.00
18749;BME280;9503;53.560;10.246;2023-03-18T05:52:57;100188.09;;;12.64;100.00
18749;BME280;9503;53.560;10.246;2023-03-18T05:55:25;100189.03;;;12.68;100.00
18749;BME280;9503;53.560;10.246;2023-03-18T05:57:52;100193.41;;;12.70;100.00
18749;BME280;9503;53.560;10.246;2023-03-18T06:00:20;100197.09;;;12.79;100.00
18749;BME280;9503;53.560;10.246;2023-03-18T06:02:47;100195.34;;;12.78;100.00
18749;BME280;9503;53.560;10.246;2023-03-18T06:05:13;100198.94;;;12.83;100.00
18749;BME280;9503;53.560;10.246;2023-03-18T06:07:41;100201.22;;;12.73;100.00
18749;BME280;9503;53.560;10.246;2023-03-18T06:10:10;100203.88;;;12.77;100.00
18749;BME280;9503;53.560;10.246;2023-03-18T06:12:37;100204.53;;;12.69;100.00
18749;BME280;9503;53.560;10.246;2023-03-18T06:15:06;100201.47;;;12.81;100.00
18749;BME280;9503;53.560;10.246;2023-03-18T06:17:34;100211.75;;;12.81;100.00
18749;BME280;9503;53.560;10.246;2023-03-18T06:20:01;100205.63;;;12.78;100.00
18749;BME280;9503;53.560;10.246;2023-03-18T06:22:28;100210.59;;;12.71;100.00
18749;BME280;9503;53.560;10.246;2023-03-18T06:24:57;100206.91;;;12.92;100.00
18749;BME280;9503;53.560;10.246;2023-03-18T06:27:24;100209.41;;;12.89;100.00
18749;BME280;9503;53.560;10.246;2023-03-18T06:29:51;100204.34;;;12.92;100.00
18749;BME280;9503;53.560;10.246;2023-03-18T06:32:18;100210.09;;;13.12;100.00
18749;BME280;9503;53.560;10.246;2023-03-18T06:34:46;100216.41;;;13.21;100.00
18749;BME280;9503;53.560;10.246;2023-03-18T06:37:12;100222.75;;;13.33;100.00
18749;BME280;9503;53.560;10.246;2023-03-18T06:39:39;100221.72;;;12.99;100.00
18749;BME280;9503;53.560;10.246;2023-03-18T06:42:07;100214.94;;;13.01;100.00
18749;BME280;9503;53.560;10.246;2023-03-18T06:44:35;100220.38;;;13.12;100.00
18749;BME280;9503;53.560;10.246;2023-03-18T06:47:01;100222.97;;;13.12;100.00
18749;BME280;9503;53.560;10.246;2023-03-18T06:49:28;100218.97;;;13.21;100.00
18749;BME280;9503;53.560;10.246;2023-03-18T06:51:55;100221.19;;;13.38;100.00
18749;BME280;9503;53.560;10.246;2023-03-18T06:54:21;100223.66;;;13.35;100.00
18749;BME280;9503;53.560;10.246;2023-03-18T06:56:48;100219.53;;;13.40;100.00
18749;BME280;9503;53.560;10.246;2023-03-18T06:59:16;100230.19;;;13.52;100.00
18749;BME280;9503;53.560;10.246;2023-03-18T07:01:43;100232.56;;;13.76;100.00
18749;BME280;9503;53.560;10.246;2023-03-18T07:04:10;100244.97;;;13.91;100.00
18749;BME280;9503;53.560;10.246;2023-03-18T07:06:36;100245.81;;;13.90;100.00
18749;BME280;9503;53.560;10.246;2023-03-18T07:09:03;100244.56;;;14.08;100.00
18749;BME280;9503;53.560;10.246;2023-03-18T07:11:30;100257.31;;;14.35;100.00
18749;BME280;9503;53.560;10.246;2023-03-18T07:13:57;100258.22;;;14.37;100.00
18749;BME280;9503;53.560;10.246;2023-03-18T07:16:25;100267.75;;;14.40;100.00
18749;BME280;9503;53.560;10.246;2023-03-18T07:18:52;100265.72;;;14.28;100.00
18749;BME280;9503;53.560;10.246;2023-03-18T07:21:18;100274.44;;;13.69;100.00
18749;BME280;9503;53.560;10.246;2023-03-18T07:23:45;100271.88;;;14.33;100.00
18749;BME280;9503;53.560;10.246;2023-03-18T07:26:11;100269.88;;;14.23;100.00
18749;BME280;9503;53.560;10.246;2023-03-18T07:28:38;100265.81;;;14.64;100.00
18749;BME280;9503;53.560;10.246;2023-03-18T07:31:06;100270.28;;;14.72;100.00
18749;BME280;9503;53.560;10.246;2023-03-18T07:33:34;100276.63;;;14.86;100.00
18749;BME280;9503;53.560;10.246;2023-03-18T07:36:01;100278.00;;;15.08;100.00
18749;BME280;9503;53.560;10.246;2023-03-18T07:38:27;100280.16;;;14.89;100.00
18749;BME280;9503;53.560;10.246;2023-03-18T07:40:54;100276.53;;;15.19;100.00
18749;BME280;9503;53.560;10.246;2023-03-18T07:43:22;100285.38;;;14.56;100.00
18749;BME280;9503;53.560;10.246;2023-03-18T07:45:49;100283.38;;;15.17;100.00
18749;BME280;9503;53.560;10.246;2023-03-18T07:48:15;100286.41;;;14.63;100.00
18749;BME280;9503;53.560;10.246;2023-03-18T07:50:43;100285.50;;;14.28;100.00
18749;BME280;9503;53.560;10.246;2023-03-18T07:53:10;100297.22;;;13.85;100.00
18749;BME280;9503;53.560;10.246;2023-03-18T07:55:37;100303.97;;;14.78;100.00
18749;BME280;9503;53.560;10.246;2023-03-18T07:58:05;100303.63;;;15.77;100.00
18749;BME280;9503;53.560;10.246;2023-03-18T08:00:31;100298.56;;;15.83;99.99
18749;BME280;9503;53.560;10.246;2023-03-18T08:02:58;100307.91;;;16.20;98.58
18749;BME280;9503;53.560;10.246;2023-03-18T08:05:25;100307.09;;;16.71;94.67
18749;BME280;9503;53.560;10.246;2023-03-18T08:07:53;100300.66;;;16.49;96.12
18749;BME280;9503;53.560;10.246;2023-03-18T08:10:19;100306.03;;;15.68;98.70
18749;BME280;9503;53.560;10.246;2023-03-18T08:12:46;100304.44;;;14.98;100.00
18749;BME280;9503;53.560;10.246;2023-03-18T08:15:13;100309.53;;;14.60;100.00
18749;BME280;9503;53.560;10.246;2023-03-18T08:17:40;100307.78;;;14.93;100.00
18749;BME280;9503;53.560;10.246;2023-03-18T08:20:08;100312.13;;;14.95;100.00
18749;BME280;9503;53.560;10.246;2023-03-18T08:22:36;100314.88;;;14.34;100.00
18749;BME280;9503;53.560;10.246;2023-03-18T08:25:05;100318.47;;;14.73;100.00
18749;BME280;9503;53.560;10.246;2023-03-18T08:27:31;100318.81;;;14.86;100.00
18749;BME280;9503;53.560;10.246;2023-03-18T08:29:58;100313.88;;;14.61;100.00
18749;BME280;9503;53.560;10.246;2023-03-18T08:32:25;100316.44;;;14.96;100.00
18749;BME280;9503;53.560;10.246;2023-03-18T08:34:52;100318.84;;;14.88;100.00
18749;BME280;9503;53.560;10.246;2023-03-18T08:37:18;100319.56;;;14.48;100.00
18749;BME280;9503;53.560;10.246;2023-03-18T08:39:45;100328.84;;;15.10;100.00
18749;BME280;9503;53.560;10.246;2023-03-18T08:42:13;100335.97;;;15.20;100.00
18749;BME280;9503;53.560;10.246;2023-03-18T08:44:40;100330.56;;;14.75;100.00
18749;BME280;9503;53.560;10.246;2023-03-18T08:47:07;100333.47;;;14.87;100.00
18749;BME280;9503;53.560;10.246;2023-03-18T08:49:34;100333.72;;;14.63;100.00
18749;BME280;9503;53.560;10.246;2023-03-18T08:52:01;100348.97;;;14.54;100.00
18749;BME280;9503;53.560;10.246;2023-03-18T08:54:27;100342.91;;;14.54;100.00
18749;BME280;9503;53.560;10.246;2023-03-18T08:56:54;100352.16;;;14.77;100.00
18749;BME280;9503;53.560;10.246;2023-03-18T08:59:22;100353.00;;;14.13;100.00
18749;BME280;9503;53.560;10.246;2023-03-18T09:01:49;100354.88;;;14.50;100.00
18749;BME280;9503;53.560;10.246;2023-03-18T09:04:16;100361.94;;;14.57;100.00
18749;BME280;9503;53.560;10.246;2023-03-18T09:06:43;100353.72;;;14.09;100.00
18749;BME280;9503;53.560;10.246;2023-03-18T09:09:09;100366.63;;;14.41;100.00
18749;BME280;9503;53.560;10.246;2023-03-18T09:11:36;100367.66;;;14.16;100.00
18749;BME280;9503;53.560;10.246;2023-03-18T09:14:04;100368.28;;;14.38;100.00
18749;BME280;9503;53.560;10.246;2023-03-18T09:16:32;100376.91;;;14.39;100.00
18749;BME280;9503;53.560;10.246;2023-03-18T09:19:00;100366.81;;;14.17;100.00
18749;BME280;9503;53.560;10.246;2023-03-18T09:21:26;100374.66;;;14.20;100.00
18749;BME280;9503;53.560;10.246;2023-03-18T09:23:53;100380.34;;;14.70;100.00
18749;BME280;9503;53.560;10.246;2023-03-18T09:26:19;100375.94;;;14.35;100.00
18749;BME280;9503;53.560;10.246;2023-03-18T09:28:46;100381.50;;;14.49;100.00
18749;BME280;9503;53.560;10.246;2023-03-18T09:31:13;100384.06;;;14.48;100.00
18749;BME280;9503;53.560;10.246;2023-03-18T09:33:41;100389.50;;;14.58;100.00
18749;BME280;9503;53.560;10.246;2023-03-18T09:36:08;100390.50;;;14.63;100.00
18749;BME280;9503;53.560;10.246;2023-03-18T09:38:35;100398.09;;;14.59;100.00
18749;BME280;9503;53.560;10.246;2023-03-18T09:41:06;100400.34;;;14.47;100.00
18749;BME280;9503;53.560;10.246;2023-03-18T09:43:55;100402.81;;;14.75;100.00
18749;BME280;9503;53.560;10.246;2023-03-18T09:46:31;100403.75;;;14.46;100.00
18749;BME280;9503;53.560;10.246;2023-03-18T09:49:15;100410.38;;;14.68;100.00
18749;BME280;9503;53.560;10.246;2023-03-18T09:51:56;100405.25;;;14.39;100.00
18749;BME280;9503;53.560;10.246;2023-03-18T09:54:32;100410.00;;;14.24;100.00
18749;BME280;9503;53.560;10.246;2023-03-18T09:57:01;100407.69;;;14.98;100.00
18749;BME280;9503;53.560;10.246;2023-03-18T09:59:34;100416.47;;;14.70;100.00
18749;BME280;9503;53.560;10.246;2023-03-18T10:02:07;100418.44;;;14.80;100.00
18749;BME280;9503;53.560;10.246;2023-03-18T10:04:43;100409.31;;;14.92;100.00
18749;BME280;9503;53.560;10.246;2023-03-18T10:07:13;100415.00;;;15.14;100.00
18749;BME280;9503;53.560;10.246;2023-03-18T10:09:45;100416.47;;;15.39;100.00
18749;BME280;9503;53.560;10.246;2023-03-18T10:12:17;100409.91;;;15.53;100.00
18749;BME280;9503;53.560;10.246;2023-03-18T10:14:51;100420.94;;;15.82;100.00
18749;BME280;9503;53.560;10.246;2023-03-18T10:17:26;100415.78;;;16.24;100.00
18749;BME280;9503;53.560;10.246;2023-03-18T10:19:57;100415.00;;;16.28;100.00
18749;BME280;9503;53.560;10.246;2023-03-18T10:22:38;100429.91;;;16.85;97.67
18749;BME280;9503;53.560;10.246;2023-03-18T10:25:15;100430.66;;;17.30;93.17
18749;BME280;9503;53.560;10.246;2023-03-18T10:27:52;100428.22;;;17.39;92.49
18749;BME280;9503;53.560;10.246;2023-03-18T10:30:33;100429.53;;;17.12;94.66
18749;BME280;9503;53.560;10.246;2023-03-18T10:33:07;100431.66;;;16.87;93.44
18749;BME280;9503;53.560;10.246;2023-03-18T10:35:42;100433.09;;;17.19;92.46
18749;BME280;9503;53.560;10.246;2023-03-18T10:38:17;100438.88;;;17.59;92.23
18749;BME280;9503;53.560;10.246;2023-03-18T10:40:45;100442.41;;;17.09;92.05
18749;BME280;9503;53.560;10.246;2023-03-18T10:43:15;100436.38;;;17.10;93.26
18749;BME280;9503;53.560;10.246;2023-03-18T10:45:44;100432.00;;;17.62;88.57
18749;BME280;9503;53.560;10.246;2023-03-18T10:48:17;100438.28;;;17.19;90.17
18749;BME280;9503;53.560;10.246;2023-03-18T10:50:53;100439.00;;;17.66;88.93
18749;BME280;9503;53.560;10.246;2023-03-18T10:53:26;100441.16;;;17.37;89.11
18749;BME280;9503;53.560;10.246;2023-03-18T10:55:57;100433.66;;;16.56;94.70
18749;BME280;9503;53.560;10.246;2023-03-18T10:58:26;100442.84;;;16.84;91.97
18749;BME280;9503;53.560;10.246;2023-03-18T11:00:53;100438.16;;;17.13;91.39
18749;BME280;9503;53.560;10.246;2023-03-18T11:03:23;100440.88;;;17.74;89.03
18749;BME280;9503;53.560;10.246;2023-03-18T11:05:53;100443.88;;;17.47;89.02
18749;BME280;9503;53.560;10.246;2023-03-18T11:08:29;100447.00;;;17.79;88.24
18749;BME280;9503;53.560;10.246;2023-03-18T11:11:01;100440.19;;;17.85;89.12
18749;BME280;9503;53.560;10.246;2023-03-18T11:13:44;100440.91;;;17.77;87.52
18749;BME280;9503;53.560;10.246;2023-03-18T11:16:20;100440.19;;;17.87;87.91
18749;BME280;9503;53.560;10.246;2023-03-18T11:18:48;100441.19;;;17.97;85.70
18749;BME280;9503;53.560;10.246;2023-03-18T11:21:18;100438.09;;;18.23;84.18
18749;BME280;9503;53.560;10.246;2023-03-18T11:23:55;100441.97;;;18.59;84.76
18749;BME280;9503;53.560;10.246;2023-03-18T11:26:45;100446.13;;;18.45;84.39
18749;BME280;9503;53.560;10.246;2023-03-18T11:29:16;100439.53;;;18.02;86.31
18749;BME280;9503;53.560;10.246;2023-03-18T11:31:51;100448.44;;;18.99;81.90
18749;BME280;9503;53.560;10.246;2023-03-18T11:34:19;100439.81;;;19.02;81.93
18749;BME280;9503;53.560;10.246;2023-03-18T11:36:58;100440.38;;;19.69;78.49
18749;BME280;9503;53.560;10.246;2023-03-18T11:39:30;100440.31;;;17.96;83.32
18749;BME280;9503;53.560;10.246;2023-03-18T11:41:58;100439.22;;;17.26;86.06
18749;BME280;9503;53.560;10.246;2023-03-18T11:44:29;100437.31;;;18.31;84.23
18749;BME280;9503;53.560;10.246;2023-03-18T11:47:01;100440.78;;;18.31;82.13
18749;BME280;9503;53.560;10.246;2023-03-18T11:49:29;100441.94;;;19.53;78.38
18749;BME280;9503;53.560;10.246;2023-03-18T11:52:27;100446.16;;;19.35;76.53
18749;BME280;9503;53.560;10.246;2023-03-18T11:55:12;100452.06;;;20.52;74.63
18749;BME280;9503;53.560;10.246;2023-03-18T11:58:02;100454.78;;;21.12;71.00
18749;BME280;9503;53.560;10.246;2023-03-18T12:00:36;100445.81;;;20.20;71.78
18749;BME280;9503;53.560;10.246;2023-03-18T12:03:41;100459.44;;;18.72;77.08
18749;BME280;9503;53.560;10.246;2023-03-18T12:06:18;100453.28;;;19.58;74.22
18749;BME280;9503;53.560;10.246;2023-03-18T12:08:58;100452.56;;;19.81;73.08
18749;BME280;9503;53.560;10.246;2023-03-18T12:11:34;100458.88;;;20.21;71.78
18749;BME280;9503;53.560;10.246;2023-03-18T12:14:11;100462.56;;;20.84;69.07
18749;BME280;9503;53.560;10.246;2023-03-18T12:16:54;100459.78;;;20.31;71.73
18749;BME280;9503;53.560;10.246;2023-03-18T12:22:36;100458.06;;;19.08;74.25
18749;BME280;9503;53.560;10.246;2023-03-18T12:25:18;100460.91;;;19.36;73.65
18749;BME280;9503;53.560;10.246;2023-03-18T12:27:57;100467.63;;;20.40;69.76
18749;BME280;9503;53.560;10.246;2023-03-18T12:30:43;100467.72;;;20.57;68.99
18749;BME280;9503;53.560;10.246;2023-03-18T12:33:28;100458.66;;;19.81;69.36
18749;BME280;9503;53.560;10.246;2023-03-18T12:36:05;100457.69;;;19.66;70.25
18749;BME280;9503;53.560;10.246;2023-03-18T12:38:49;100465.84;;;20.31;67.81
18749;BME280;9503;53.560;10.246;2023-03-18T12:41:22;100476.53;;;21.12;64.23
18749;BME280;9503;53.560;10.246;2023-03-18T12:44:05;100471.84;;;20.13;68.46
18749;BME280;9503;53.560;10.246;2023-03-18T12:46:38;100468.69;;;19.36;69.56
18749;BME280;9503;53.560;10.246;2023-03-18T12:49:11;100478.22;;;19.33;69.47
18749;BME280;9503;53.560;10.246;2023-03-18T12:51:43;100471.63;;;18.78;71.86
18749;BME280;9503;53.560;10.246;2023-03-18T12:54:17;100472.56;;;18.85;71.25
18749;BME280;9503;53.560;10.246;2023-03-18T12:56:49;100467.31;;;19.77;69.05
18749;BME280;9503;53.560;10.246;2023-03-18T12:59:25;100467.06;;;19.47;68.31
18749;BME280;9503;53.560;10.246;2023-03-18T13:02:13;100468.06;;;18.68;72.62
18749;BME280;9503;53.560;10.246;2023-03-18T13:04:49;100471.78;;;18.93;70.20